HAZ1079 UTAA-ZGGG
Flight info
| Callsign | HAZ1079 |
|---|---|
| Flight time | N/A |
| Altitude | 32000 |
| Route | UTAA11R KEM11D KEMOR DCT GYA GYA8 ZGGGAGVOSI02RY |
| Aircraft | A320/L-SDE2E3FGHIJ1RWXY/LB1 |
Departure
| Time | 2026-04-17 08:31 |
|---|---|
| Airport | Ashgabat International Airport (UTAA) |
Arrival
| Time | N/A |
|---|---|
| Airport | Guangzhou Baiyun International Airport (ZGGG) |
| Time | Latitude | Longitude | Altitude | Speed | Heading |
|---|---|---|---|---|---|
| 2026-04-17 08:15 | 37.98214 | 58.36428 | 684 ft | 0 kts | 209° |
| 2026-04-17 08:18 | 37.98215 | 58.36427 | 684 ft | 0 kts | 209° |
| 2026-04-17 08:18 | 37.98229 | 58.36440 | 684 ft | 0 kts | 209° |
| 2026-04-17 08:20 | 37.98237 | 58.36445 | 684 ft | 2 kts | 208° |
| 2026-04-17 08:20 | 37.98250 | 58.36455 | 684 ft | 2 kts | 209° |
| 2026-04-17 08:20 | 37.98264 | 58.36464 | 684 ft | 2 kts | 208° |
| 2026-04-17 08:20 | 37.98276 | 58.36476 | 684 ft | 2 kts | 237° |
| 2026-04-17 08:21 | 37.98282 | 58.36494 | 684 ft | 2 kts | 262° |
| 2026-04-17 08:21 | 37.98281 | 58.36513 | 684 ft | 2 kts | 288° |
| 2026-04-17 08:21 | 37.98278 | 58.36522 | 685 ft | 1 kts | 303° |
| 2026-04-17 08:21 | 37.98276 | 58.36527 | 685 ft | 0 kts | 300° |
| 2026-04-17 08:25 | 37.98278 | 58.36522 | 685 ft | 2 kts | 298° |
| 2026-04-17 08:25 | 37.98296 | 58.36480 | 684 ft | 8 kts | 299° |
| 2026-04-17 08:25 | 37.98318 | 58.36409 | 684 ft | 9 kts | 269° |
| 2026-04-17 08:26 | 37.98277 | 58.36349 | 684 ft | 10 kts | 209° |
| 2026-04-17 08:26 | 37.98201 | 58.36296 | 684 ft | 13 kts | 207° |
| 2026-04-17 08:26 | 37.98175 | 58.36200 | 684 ft | 14 kts | 295° |
| 2026-04-17 08:26 | 37.98232 | 58.36067 | 684 ft | 20 kts | 300° |
| 2026-04-17 08:27 | 37.98230 | 58.35943 | 684 ft | 15 kts | 219° |
| 2026-04-17 08:27 | 37.98237 | 58.35828 | 686 ft | 15 kts | 298° |
| 2026-04-17 08:27 | 37.98309 | 58.35664 | 688 ft | 25 kts | 298° |
| 2026-04-17 08:27 | 37.98413 | 58.35431 | 688 ft | 35 kts | 300° |
| 2026-04-17 08:28 | 37.98536 | 58.35157 | 688 ft | 33 kts | 298° |
| 2026-04-17 08:28 | 37.98647 | 58.34908 | 691 ft | 34 kts | 299° |
| 2026-04-17 08:28 | 37.98785 | 58.34598 | 691 ft | 46 kts | 299° |
| 2026-04-17 08:28 | 37.98922 | 58.34290 | 691 ft | 38 kts | 299° |
| 2026-04-17 08:29 | 37.99052 | 58.33997 | 688 ft | 37 kts | 299° |
| 2026-04-17 08:29 | 37.99148 | 58.33783 | 687 ft | 14 kts | 299° |
| 2026-04-17 08:29 | 37.99129 | 58.33689 | 686 ft | 0 kts | 209° |
| 2026-04-17 08:29 | 37.99117 | 58.33681 | 686 ft | 6 kts | 207° |
| 2026-04-17 08:30 | 37.99045 | 58.33630 | 687 ft | 16 kts | 209° |
| 2026-04-17 08:30 | 37.98973 | 58.33626 | 687 ft | 0 kts | 121° |
| 2026-04-17 08:30 | 37.98917 | 58.33744 | 688 ft | 48 kts | 121° |
| 2026-04-17 08:30 | 37.98625 | 58.34402 | 693 ft | 119 kts | 120° |
| 2026-04-17 08:31 | 37.98125 | 58.35533 | 690 ft | 175 kts | 120° |
| 2026-04-17 08:31 | 37.97543 | 58.36973 | 1186 ft | 186 kts | 121° |
| 2026-04-17 08:31 | 37.96962 | 58.38444 | 1818 ft | 194 kts | 120° |
| 2026-04-17 08:31 | 37.96612 | 58.40127 | 2531 ft | 207 kts | 96° |
| 2026-04-17 08:32 | 37.96621 | 58.42033 | 3034 ft | 231 kts | 91° |
| 2026-04-17 08:32 | 37.96699 | 58.44187 | 3558 ft | 255 kts | 89° |
| 2026-04-17 08:32 | 37.96840 | 58.46515 | 4220 ft | 274 kts | 87° |
| 2026-04-17 08:32 | 37.97014 | 58.48660 | 4883 ft | 287 kts | 85° |
| 2026-04-17 08:33 | 37.97475 | 58.51166 | 5661 ft | 299 kts | 70° |
| 2026-04-17 08:33 | 37.98524 | 58.53517 | 6196 ft | 315 kts | 56° |
| 2026-04-17 08:33 | 37.99539 | 58.55970 | 6800 ft | 322 kts | 75° |
| 2026-04-17 08:33 | 37.99743 | 58.58770 | 7588 ft | 319 kts | 99° |
| 2026-04-17 08:34 | 37.99115 | 58.61435 | 8375 ft | 318 kts | 115° |
| 2026-04-17 08:34 | 37.98249 | 58.64019 | 9077 ft | 323 kts | 113° |
| 2026-04-17 08:34 | 37.97506 | 58.66701 | 9735 ft | 328 kts | 109° |
| 2026-04-17 08:34 | 37.96906 | 58.69535 | 10423 ft | 332 kts | 105° |
| 2026-04-17 08:35 | 37.96426 | 58.72409 | 11086 ft | 336 kts | 103° |
| 2026-04-17 08:35 | 37.96015 | 58.75316 | 11729 ft | 340 kts | 101° |
| 2026-04-17 08:35 | 37.95634 | 58.78322 | 12374 ft | 343 kts | 100° |
| 2026-04-17 08:35 | 37.95278 | 58.81307 | 12991 ft | 347 kts | 100° |
| 2026-04-17 08:36 | 37.94924 | 58.84369 | 13600 ft | 351 kts | 99° |
| 2026-04-17 08:36 | 37.94575 | 58.87435 | 14193 ft | 355 kts | 99° |
| 2026-04-17 08:36 | 37.94223 | 58.90548 | 14777 ft | 358 kts | 99° |
| 2026-04-17 08:36 | 37.93864 | 58.93715 | 15352 ft | 362 kts | 99° |
| 2026-04-17 08:37 | 37.93509 | 58.96854 | 15905 ft | 365 kts | 99° |
| 2026-04-17 08:37 | 37.93145 | 59.00063 | 16455 ft | 369 kts | 99° |
| 2026-04-17 08:37 | 37.92780 | 59.03269 | 16987 ft | 372 kts | 99° |
| 2026-04-17 08:37 | 37.92406 | 59.06552 | 17518 ft | 376 kts | 99° |
| 2026-04-17 08:38 | 37.92034 | 59.09815 | 18027 ft | 379 kts | 99° |
| 2026-04-17 08:38 | 37.91652 | 59.13149 | 18534 ft | 383 kts | 99° |
| 2026-04-17 08:38 | 37.91268 | 59.16490 | 19031 ft | 386 kts | 99° |
| 2026-04-17 08:38 | 37.90884 | 59.19831 | 19511 ft | 389 kts | 99° |
| 2026-04-17 08:39 | 37.90490 | 59.23236 | 19984 ft | 393 kts | 99° |
| 2026-04-17 08:39 | 37.90088 | 59.26699 | 20456 ft | 396 kts | 99° |
| 2026-04-17 08:39 | 37.89691 | 59.30120 | 20912 ft | 399 kts | 99° |
| 2026-04-17 08:39 | 37.89434 | 59.33648 | 21353 ft | 403 kts | 91° |
| 2026-04-17 08:40 | 37.89548 | 59.37187 | 21785 ft | 407 kts | 83° |
| 2026-04-17 08:40 | 37.90008 | 59.40719 | 22223 ft | 409 kts | 78° |
| 2026-04-17 08:40 | 37.90592 | 59.44280 | 22651 ft | 412 kts | 77° |
| 2026-04-17 08:40 | 37.91192 | 59.47825 | 23058 ft | 416 kts | 77° |
| 2026-04-17 08:41 | 37.91792 | 59.51400 | 23464 ft | 418 kts | 77° |
| 2026-04-17 08:41 | 37.92394 | 59.55047 | 23868 ft | 421 kts | 77° |
| 2026-04-17 08:41 | 37.92983 | 59.58651 | 24260 ft | 424 kts | 77° |
| 2026-04-17 08:41 | 37.93580 | 59.62340 | 24639 ft | 427 kts | 77° |
| 2026-04-17 08:42 | 37.94173 | 59.66022 | 25000 ft | 430 kts | 78° |
| 2026-04-17 08:42 | 37.94769 | 59.69732 | 25361 ft | 432 kts | 78° |
| 2026-04-17 08:42 | 37.95369 | 59.73490 | 25716 ft | 435 kts | 78° |
| 2026-04-17 08:42 | 37.95970 | 59.77266 | 26055 ft | 437 kts | 78° |
| 2026-04-17 08:43 | 37.96567 | 59.81017 | 26379 ft | 440 kts | 78° |
| 2026-04-17 08:43 | 37.97167 | 59.84802 | 26695 ft | 442 kts | 78° |
| 2026-04-17 08:43 | 37.97774 | 59.88642 | 27014 ft | 445 kts | 78° |
| 2026-04-17 08:43 | 37.98379 | 59.92476 | 27313 ft | 447 kts | 78° |
| 2026-04-17 08:44 | 37.98994 | 59.96383 | 27616 ft | 449 kts | 78° |
| 2026-04-17 08:44 | 37.99599 | 60.00229 | 27901 ft | 451 kts | 78° |
| 2026-04-17 08:44 | 38.00214 | 60.04156 | 28179 ft | 454 kts | 78° |
| 2026-04-17 08:44 | 38.00824 | 60.08054 | 28461 ft | 456 kts | 78° |
| 2026-04-17 08:45 | 38.01442 | 60.12022 | 28744 ft | 458 kts | 78° |
| 2026-04-17 08:45 | 38.02061 | 60.16001 | 29011 ft | 460 kts | 78° |
| 2026-04-17 08:45 | 38.02672 | 60.19934 | 29273 ft | 462 kts | 78° |
| 2026-04-17 08:45 | 38.03300 | 60.23981 | 29527 ft | 464 kts | 78° |
| 2026-04-17 08:46 | 38.03921 | 60.27998 | 29780 ft | 466 kts | 78° |
| 2026-04-17 08:46 | 38.04543 | 60.32031 | 30031 ft | 468 kts | 78° |
| 2026-04-17 08:46 | 38.05164 | 60.36071 | 30277 ft | 469 kts | 77° |
| 2026-04-17 08:46 | 38.05786 | 60.40135 | 30502 ft | 471 kts | 77° |
| 2026-04-17 08:47 | 38.06413 | 60.44222 | 30729 ft | 473 kts | 77° |
| 2026-04-17 08:47 | 38.07039 | 60.48317 | 30956 ft | 475 kts | 77° |
| 2026-04-17 08:47 | 38.07664 | 60.52423 | 31179 ft | 477 kts | 77° |
| 2026-04-17 08:47 | 38.08291 | 60.56551 | 31390 ft | 478 kts | 77° |
| 2026-04-17 08:48 | 38.08917 | 60.60684 | 31592 ft | 480 kts | 77° |
| 2026-04-17 08:48 | 38.09546 | 60.64845 | 31779 ft | 482 kts | 77° |
| 2026-04-17 08:48 | 38.10183 | 60.69060 | 31947 ft | 483 kts | 78° |
| 2026-04-17 08:49 | 38.11448 | 60.77476 | 31980 ft | 492 kts | 78° |
| 2026-04-17 08:49 | 38.12729 | 60.86056 | 31980 ft | 501 kts | 78° |
| 2026-04-17 08:50 | 38.14030 | 60.94834 | 31980 ft | 509 kts | 78° |
| 2026-04-17 08:50 | 38.15344 | 61.03731 | 31979 ft | 513 kts | 78° |
| 2026-04-17 08:51 | 38.16645 | 61.12604 | 31979 ft | 515 kts | 78° |
| 2026-04-17 08:51 | 38.17960 | 61.21591 | 31979 ft | 517 kts | 78° |
| 2026-04-17 08:52 | 38.19262 | 61.30543 | 31980 ft | 518 kts | 78° |
| 2026-04-17 08:52 | 38.20560 | 61.39519 | 31980 ft | 518 kts | 78° |
| 2026-04-17 08:53 | 38.21856 | 61.48530 | 31980 ft | 518 kts | 78° |
| 2026-04-17 08:53 | 38.23142 | 61.57520 | 31979 ft | 518 kts | 78° |
| 2026-04-17 08:54 | 38.24419 | 61.66504 | 31978 ft | 518 kts | 79° |
| 2026-04-17 08:54 | 38.25690 | 61.75498 | 31979 ft | 518 kts | 79° |
| 2026-04-17 08:55 | 38.26952 | 61.84477 | 31979 ft | 518 kts | 79° |
| 2026-04-17 08:55 | 38.28216 | 61.93525 | 31979 ft | 518 kts | 78° |
| 2026-04-17 08:56 | 38.29462 | 62.02473 | 31979 ft | 517 kts | 79° |
| 2026-04-17 08:56 | 38.30714 | 62.11525 | 31979 ft | 517 kts | 79° |
| 2026-04-17 08:57 | 38.31950 | 62.20519 | 31979 ft | 518 kts | 79° |
| 2026-04-17 08:57 | 38.33179 | 62.29525 | 31979 ft | 517 kts | 79° |
| 2026-04-17 08:58 | 38.34404 | 62.38557 | 31980 ft | 517 kts | 79° |
| 2026-04-17 08:58 | 38.35617 | 62.47549 | 31978 ft | 518 kts | 79° |
| 2026-04-17 08:59 | 38.36831 | 62.56594 | 31980 ft | 517 kts | 79° |
| 2026-04-17 08:59 | 38.38035 | 62.65632 | 31979 ft | 517 kts | 79° |
| 2026-04-17 09:00 | 38.39230 | 62.74642 | 31964 ft | 518 kts | 79° |
| 2026-04-17 09:00 | 38.40420 | 62.83685 | 31913 ft | 519 kts | 79° |
| 2026-04-17 09:01 | 38.41616 | 62.92828 | 31840 ft | 521 kts | 79° |
| 2026-04-17 09:01 | 38.42793 | 63.01883 | 31779 ft | 522 kts | 79° |
| 2026-04-17 09:02 | 38.43979 | 63.11063 | 31751 ft | 523 kts | 79° |
| 2026-04-17 09:02 | 38.45155 | 63.20205 | 31741 ft | 524 kts | 79° |
| 2026-04-17 09:03 | 38.46321 | 63.29356 | 31739 ft | 524 kts | 79° |
| 2026-04-17 09:03 | 38.47483 | 63.38493 | 31737 ft | 524 kts | 79° |
| 2026-04-17 09:04 | 38.48642 | 63.47693 | 31737 ft | 523 kts | 79° |
| 2026-04-17 09:04 | 38.49788 | 63.56852 | 31736 ft | 524 kts | 79° |
| 2026-04-17 09:05 | 38.50927 | 63.66035 | 31726 ft | 524 kts | 80° |
| 2026-04-17 09:05 | 38.52065 | 63.75240 | 31714 ft | 524 kts | 80° |
| 2026-04-17 09:06 | 38.53186 | 63.84391 | 31710 ft | 524 kts | 80° |
| 2026-04-17 09:06 | 38.54311 | 63.93629 | 31709 ft | 524 kts | 80° |
| 2026-04-17 09:07 | 38.55419 | 64.02788 | 31709 ft | 524 kts | 80° |
| 2026-04-17 09:07 | 38.56520 | 64.11945 | 31708 ft | 524 kts | 80° |
| 2026-04-17 09:08 | 38.57620 | 64.21176 | 31708 ft | 524 kts | 80° |
| 2026-04-17 09:08 | 38.58707 | 64.30340 | 31709 ft | 523 kts | 80° |
| 2026-04-17 09:09 | 38.59792 | 64.39542 | 31709 ft | 524 kts | 80° |
| 2026-04-17 09:09 | 38.60871 | 64.48782 | 31709 ft | 523 kts | 80° |
| 2026-04-17 09:10 | 38.62470 | 64.62591 | 31707 ft | 524 kts | 80° |
| 2026-04-17 09:10 | 38.63523 | 64.71751 | 31707 ft | 524 kts | 81° |
| 2026-04-17 09:11 | 38.64576 | 64.80976 | 31707 ft | 524 kts | 81° |
| 2026-04-17 09:11 | 38.65619 | 64.90196 | 31710 ft | 523 kts | 81° |
| 2026-04-17 09:12 | 38.66651 | 64.99386 | 31709 ft | 522 kts | 81° |
| 2026-04-17 09:12 | 38.67678 | 65.08570 | 31709 ft | 521 kts | 81° |
| 2026-04-17 09:13 | 38.68688 | 65.17701 | 31709 ft | 521 kts | 81° |
| 2026-04-17 09:13 | 38.69701 | 65.26908 | 31708 ft | 521 kts | 81° |
| 2026-04-17 09:14 | 38.70698 | 65.36047 | 31708 ft | 521 kts | 81° |
| 2026-04-17 09:14 | 38.71692 | 65.45218 | 31708 ft | 521 kts | 81° |
| 2026-04-17 09:15 | 38.72681 | 65.54417 | 31708 ft | 521 kts | 81° |
| 2026-04-17 09:15 | 38.73656 | 65.63557 | 31708 ft | 521 kts | 81° |
| 2026-04-17 09:16 | 38.74632 | 65.72765 | 31708 ft | 521 kts | 82° |
| 2026-04-17 09:16 | 38.75597 | 65.81948 | 31709 ft | 521 kts | 82° |
| 2026-04-17 09:17 | 38.76556 | 65.91157 | 31709 ft | 521 kts | 82° |
| 2026-04-17 09:17 | 38.77513 | 66.00394 | 31709 ft | 521 kts | 82° |
| 2026-04-17 09:18 | 38.78455 | 66.09573 | 31709 ft | 521 kts | 82° |
| 2026-04-17 09:18 | 38.79391 | 66.18771 | 31709 ft | 521 kts | 82° |
| 2026-04-17 09:19 | 38.80318 | 66.27937 | 31708 ft | 521 kts | 82° |
| 2026-04-17 09:19 | 38.81243 | 66.37161 | 31708 ft | 521 kts | 82° |
| 2026-04-17 09:20 | 38.82159 | 66.46385 | 31708 ft | 521 kts | 82° |
| 2026-04-17 09:20 | 38.83067 | 66.55601 | 31708 ft | 521 kts | 82° |
| 2026-04-17 09:21 | 38.83966 | 66.64790 | 31708 ft | 521 kts | 82° |
| 2026-04-17 09:21 | 38.84862 | 66.74017 | 31709 ft | 521 kts | 82° |
| 2026-04-17 09:22 | 38.85751 | 66.83260 | 31709 ft | 521 kts | 82° |
| 2026-04-17 09:22 | 38.86630 | 66.92481 | 31709 ft | 521 kts | 82° |
| 2026-04-17 09:23 | 38.87502 | 67.01694 | 31710 ft | 520 kts | 82° |
| 2026-04-17 09:23 | 38.88361 | 67.10882 | 31710 ft | 518 kts | 82° |
| 2026-04-17 09:24 | 38.89212 | 67.20026 | 31710 ft | 516 kts | 82° |
| 2026-04-17 09:24 | 38.90058 | 67.29202 | 31709 ft | 515 kts | 82° |
| 2026-04-17 09:25 | 38.90888 | 67.38274 | 31708 ft | 515 kts | 82° |
| 2026-04-17 09:25 | 38.91721 | 67.47460 | 31708 ft | 515 kts | 82° |
| 2026-04-17 09:26 | 38.92538 | 67.56571 | 31708 ft | 515 kts | 82° |
| 2026-04-17 09:26 | 38.93350 | 67.65700 | 31707 ft | 515 kts | 83° |
| 2026-04-17 09:27 | 38.94158 | 67.74870 | 31708 ft | 515 kts | 83° |
| 2026-04-17 09:27 | 38.94956 | 67.84010 | 31709 ft | 515 kts | 83° |
| 2026-04-17 09:28 | 38.95742 | 67.93101 | 31709 ft | 514 kts | 83° |
| 2026-04-17 09:28 | 38.96527 | 68.02260 | 31709 ft | 514 kts | 83° |
| 2026-04-17 09:29 | 38.97301 | 68.11374 | 31709 ft | 514 kts | 83° |
| 2026-04-17 09:29 | 38.98072 | 68.20529 | 31709 ft | 514 kts | 83° |
| 2026-04-17 09:30 | 38.98833 | 68.29666 | 31708 ft | 514 kts | 83° |
| 2026-04-17 09:30 | 38.99588 | 68.38806 | 31708 ft | 514 kts | 84° |
| 2026-04-17 09:31 | 39.00336 | 68.47967 | 31708 ft | 514 kts | 84° |
| 2026-04-17 09:31 | 39.01075 | 68.57095 | 31708 ft | 513 kts | 84° |
| 2026-04-17 09:32 | 39.01808 | 68.66244 | 31707 ft | 513 kts | 84° |
| 2026-04-17 09:32 | 39.02535 | 68.75391 | 31709 ft | 513 kts | 84° |
| 2026-04-17 09:33 | 39.03250 | 68.84490 | 31709 ft | 513 kts | 84° |
| 2026-04-17 09:33 | 39.03957 | 68.93596 | 31709 ft | 513 kts | 84° |
| 2026-04-17 09:34 | 39.04657 | 69.02739 | 31709 ft | 512 kts | 84° |
| 2026-04-17 09:34 | 39.05061 | 69.08038 | 31709 ft | 512 kts | 84° |
| 2026-04-17 09:35 | 39.05754 | 69.17202 | 31709 ft | 512 kts | 84° |
| 2026-04-17 09:35 | 39.06435 | 69.26260 | 31709 ft | 512 kts | 84° |
| 2026-04-17 09:36 | 39.07111 | 69.35358 | 31708 ft | 512 kts | 84° |
| 2026-04-17 09:36 | 39.07782 | 69.44488 | 31708 ft | 512 kts | 84° |
| 2026-04-17 09:37 | 39.08443 | 69.53606 | 31707 ft | 512 kts | 84° |
| 2026-04-17 09:37 | 39.09098 | 69.62742 | 31707 ft | 512 kts | 84° |
| 2026-04-17 09:38 | 39.09663 | 69.70687 | 31708 ft | 512 kts | 84° |
| 2026-04-17 09:38 | 39.10280 | 69.79456 | 31709 ft | 512 kts | 84° |
| 2026-04-17 09:39 | 39.10912 | 69.88554 | 31708 ft | 512 kts | 84° |
| 2026-04-17 09:39 | 39.11539 | 69.97691 | 31708 ft | 512 kts | 84° |
| 2026-04-17 09:40 | 39.12158 | 70.06792 | 31709 ft | 512 kts | 84° |
| 2026-04-17 09:40 | 39.12774 | 70.15969 | 31709 ft | 512 kts | 84° |
| 2026-04-17 09:41 | 39.13379 | 70.25084 | 31709 ft | 512 kts | 84° |
| 2026-04-17 09:41 | 39.13980 | 70.34255 | 31709 ft | 512 kts | 84° |
| 2026-04-17 09:42 | 39.14572 | 70.43401 | 31709 ft | 512 kts | 84° |
| 2026-04-17 09:42 | 39.15158 | 70.52551 | 31709 ft | 512 kts | 84° |
| 2026-04-17 09:43 | 39.15733 | 70.61662 | 31709 ft | 512 kts | 84° |
| 2026-04-17 09:43 | 39.16305 | 70.70811 | 31708 ft | 512 kts | 85° |
| 2026-04-17 09:44 | 39.16868 | 70.79955 | 31709 ft | 512 kts | 85° |
| 2026-04-17 09:44 | 39.17426 | 70.89097 | 31708 ft | 511 kts | 85° |
| 2026-04-17 09:45 | 39.17973 | 70.98193 | 31709 ft | 510 kts | 86° |
| 2026-04-17 09:45 | 39.18511 | 71.07296 | 31708 ft | 509 kts | 86° |
| 2026-04-17 09:46 | 39.19039 | 71.16354 | 31708 ft | 508 kts | 86° |
| 2026-04-17 09:46 | 39.19563 | 71.25487 | 31707 ft | 508 kts | 86° |
| 2026-04-17 09:47 | 39.20083 | 71.34643 | 31709 ft | 508 kts | 86° |
| 2026-04-17 09:47 | 39.20597 | 71.43829 | 31709 ft | 508 kts | 86° |
| 2026-04-17 09:48 | 39.21098 | 71.52950 | 31708 ft | 508 kts | 86° |
| 2026-04-17 09:48 | 39.21597 | 71.62099 | 31709 ft | 508 kts | 86° |
| 2026-04-17 09:49 | 39.22091 | 71.71260 | 31708 ft | 508 kts | 86° |
| 2026-04-17 09:49 | 39.22576 | 71.80433 | 31707 ft | 508 kts | 86° |
| 2026-04-17 09:50 | 39.23053 | 71.89591 | 31709 ft | 508 kts | 86° |
| 2026-04-17 09:50 | 39.23522 | 71.98726 | 31708 ft | 508 kts | 86° |
| 2026-04-17 09:51 | 39.23986 | 72.07900 | 31708 ft | 508 kts | 86° |
| 2026-04-17 09:51 | 39.24444 | 72.17085 | 31708 ft | 508 kts | 86° |
| 2026-04-17 09:52 | 39.24892 | 72.26251 | 31709 ft | 508 kts | 86° |
| 2026-04-17 09:52 | 39.25335 | 72.35452 | 31708 ft | 508 kts | 86° |
| 2026-04-17 09:53 | 39.25767 | 72.44568 | 31707 ft | 508 kts | 86° |
| 2026-04-17 09:53 | 39.26195 | 72.53731 | 31708 ft | 508 kts | 86° |
| 2026-04-17 09:54 | 39.26617 | 72.62950 | 31708 ft | 508 kts | 86° |
| 2026-04-17 09:54 | 39.27029 | 72.72134 | 31709 ft | 508 kts | 87° |
| 2026-04-17 09:55 | 39.27434 | 72.81317 | 31709 ft | 508 kts | 87° |
| 2026-04-17 09:55 | 39.27829 | 72.90433 | 31709 ft | 508 kts | 87° |
| 2026-04-17 09:56 | 39.28220 | 72.99616 | 31709 ft | 508 kts | 87° |
| 2026-04-17 09:56 | 39.28605 | 73.08787 | 31709 ft | 506 kts | 87° |
| 2026-04-17 09:57 | 39.28981 | 73.17920 | 31710 ft | 505 kts | 88° |
| 2026-04-17 09:57 | 39.29348 | 73.27056 | 31708 ft | 505 kts | 88° |
| 2026-04-17 09:58 | 39.29708 | 73.36165 | 31708 ft | 504 kts | 88° |
| 2026-04-17 09:58 | 39.30059 | 73.45255 | 31708 ft | 504 kts | 88° |
| 2026-04-17 09:59 | 39.30405 | 73.54353 | 31710 ft | 504 kts | 88° |
| 2026-04-17 09:59 | 39.30744 | 73.63496 | 31709 ft | 504 kts | 88° |
| 2026-04-17 10:00 | 39.31077 | 73.72627 | 31708 ft | 504 kts | 88° |
| 2026-04-17 10:00 | 39.31400 | 73.81733 | 31708 ft | 504 kts | 88° |
| 2026-04-17 10:01 | 39.31716 | 73.90807 | 31707 ft | 504 kts | 88° |
| 2026-04-17 10:01 | 39.32027 | 73.99966 | 31708 ft | 504 kts | 88° |
| 2026-04-17 10:02 | 39.32330 | 74.09068 | 31709 ft | 504 kts | 88° |
| 2026-04-17 10:02 | 39.32625 | 74.18168 | 31707 ft | 504 kts | 88° |
| 2026-04-17 10:03 | 39.32912 | 74.27245 | 31708 ft | 504 kts | 88° |
| 2026-04-17 10:03 | 39.33195 | 74.36397 | 31708 ft | 504 kts | 88° |
| 2026-04-17 10:04 | 39.33470 | 74.45523 | 31708 ft | 504 kts | 88° |
| 2026-04-17 10:04 | 39.33737 | 74.54629 | 31711 ft | 504 kts | 88° |
| 2026-04-17 10:05 | 39.33995 | 74.63686 | 31696 ft | 501 kts | 88° |
| 2026-04-17 10:05 | 39.34249 | 74.72791 | 31685 ft | 502 kts | 89° |
| 2026-04-17 10:06 | 39.34493 | 74.81850 | 31683 ft | 501 kts | 89° |
| 2026-04-17 10:06 | 39.34730 | 74.90910 | 31681 ft | 502 kts | 89° |
| 2026-04-17 10:07 | 39.34959 | 75.00003 | 31681 ft | 502 kts | 89° |
| 2026-04-17 10:07 | 39.35181 | 75.09068 | 31682 ft | 502 kts | 88° |
| 2026-04-17 10:08 | 39.35400 | 75.18197 | 31683 ft | 502 kts | 88° |
| 2026-04-17 10:08 | 39.35610 | 75.27251 | 31682 ft | 502 kts | 88° |
| 2026-04-17 10:09 | 39.35802 | 75.35796 | 31682 ft | 502 kts | 88° |
| 2026-04-17 10:09 | 39.35998 | 75.44854 | 31681 ft | 502 kts | 88° |
| 2026-04-17 10:10 | 39.36187 | 75.53938 | 31681 ft | 502 kts | 88° |
| 2026-04-17 10:11 | 39.36457 | 75.67534 | 31680 ft | 502 kts | 89° |
| 2026-04-17 10:11 | 39.36628 | 75.76602 | 31681 ft | 502 kts | 89° |
| 2026-04-17 10:12 | 39.36794 | 75.85731 | 31682 ft | 502 kts | 89° |
| 2026-04-17 10:12 | 39.36951 | 75.94770 | 31681 ft | 502 kts | 89° |
| 2026-04-17 10:13 | 39.37103 | 76.03887 | 31683 ft | 502 kts | 89° |
| 2026-04-17 10:13 | 39.37245 | 76.12934 | 31681 ft | 502 kts | 89° |
| 2026-04-17 10:14 | 39.37381 | 76.21995 | 31682 ft | 502 kts | 89° |
| 2026-04-17 10:14 | 39.37510 | 76.31062 | 31682 ft | 502 kts | 89° |
| 2026-04-17 10:15 | 39.37632 | 76.40175 | 31681 ft | 502 kts | 89° |
| 2026-04-17 10:15 | 39.37747 | 76.49303 | 31682 ft | 502 kts | 89° |
| 2026-04-17 10:16 | 39.37846 | 76.57594 | 31680 ft | 502 kts | 89° |
| 2026-04-17 10:16 | 39.37947 | 76.66679 | 31682 ft | 502 kts | 89° |
| 2026-04-17 10:17 | 39.38041 | 76.75772 | 31682 ft | 502 kts | 89° |
| 2026-04-17 10:17 | 39.38127 | 76.84811 | 31681 ft | 502 kts | 89° |
| 2026-04-17 10:18 | 39.38204 | 76.93931 | 31682 ft | 502 kts | 89° |
| 2026-04-17 10:18 | 39.38276 | 77.02995 | 31681 ft | 502 kts | 89° |
| 2026-04-17 10:19 | 39.38342 | 77.12103 | 31682 ft | 502 kts | 88° |
| 2026-04-17 10:19 | 39.38405 | 77.21182 | 31682 ft | 502 kts | 89° |
| 2026-04-17 10:20 | 39.38459 | 77.30257 | 31681 ft | 502 kts | 88° |
| 2026-04-17 10:20 | 39.38504 | 77.39326 | 31679 ft | 502 kts | 88° |
| 2026-04-17 10:21 | 39.38541 | 77.48443 | 31682 ft | 502 kts | 89° |
| 2026-04-17 10:21 | 39.38571 | 77.57565 | 31682 ft | 502 kts | 89° |
| 2026-04-17 10:22 | 39.38594 | 77.66611 | 31679 ft | 502 kts | 89° |
| 2026-04-17 10:22 | 39.38611 | 77.75719 | 31680 ft | 502 kts | 89° |
| 2026-04-17 10:23 | 39.38621 | 77.84791 | 31682 ft | 502 kts | 89° |
| 2026-04-17 10:23 | 39.38624 | 77.93876 | 31684 ft | 502 kts | 89° |
| 2026-04-17 10:24 | 39.38617 | 78.03013 | 31681 ft | 502 kts | 89° |
| 2026-04-17 10:24 | 39.38606 | 78.12080 | 31682 ft | 501 kts | 89° |
| 2026-04-17 10:25 | 39.38587 | 78.21126 | 31681 ft | 502 kts | 89° |
| 2026-04-17 10:25 | 39.38558 | 78.30257 | 31681 ft | 502 kts | 89° |
| 2026-04-17 10:26 | 39.38526 | 78.39294 | 31682 ft | 502 kts | 89° |
| 2026-04-17 10:26 | 39.38485 | 78.48412 | 31682 ft | 502 kts | 89° |
| 2026-04-17 10:27 | 39.38440 | 78.57491 | 31680 ft | 502 kts | 89° |
| 2026-04-17 10:27 | 39.38385 | 78.66636 | 31681 ft | 502 kts | 90° |
| 2026-04-17 10:28 | 39.38327 | 78.75695 | 31681 ft | 502 kts | 90° |
| 2026-04-17 10:28 | 39.38258 | 78.84792 | 31682 ft | 502 kts | 90° |
| 2026-04-17 10:29 | 39.38179 | 78.93868 | 31680 ft | 502 kts | 90° |
| 2026-04-17 10:29 | 39.38093 | 79.03014 | 31683 ft | 501 kts | 89° |
| 2026-04-17 10:30 | 39.38003 | 79.12032 | 31683 ft | 499 kts | 89° |
| 2026-04-17 10:30 | 39.37907 | 79.21059 | 31684 ft | 497 kts | 89° |
| 2026-04-17 10:31 | 39.37808 | 79.30082 | 31682 ft | 496 kts | 89° |
| 2026-04-17 10:31 | 39.37701 | 79.39064 | 31683 ft | 496 kts | 89° |
| 2026-04-17 10:32 | 39.37587 | 79.48012 | 31681 ft | 496 kts | 89° |
| 2026-04-17 10:32 | 39.37462 | 79.57030 | 31683 ft | 496 kts | 89° |
| 2026-04-17 10:33 | 39.37331 | 79.66003 | 31679 ft | 496 kts | 89° |
| 2026-04-17 10:33 | 39.37197 | 79.74952 | 31681 ft | 496 kts | 89° |
| 2026-04-17 10:34 | 39.37054 | 79.83925 | 31682 ft | 496 kts | 89° |
| 2026-04-17 10:34 | 39.36903 | 79.92921 | 31681 ft | 496 kts | 89° |
| 2026-04-17 10:35 | 39.36745 | 80.01932 | 31682 ft | 496 kts | 89° |
| 2026-04-17 10:35 | 39.36581 | 80.10908 | 31681 ft | 496 kts | 90° |
| 2026-04-17 10:36 | 39.36406 | 80.19916 | 31682 ft | 496 kts | 90° |
| 2026-04-17 10:36 | 39.36227 | 80.28915 | 31682 ft | 496 kts | 89° |
| 2026-04-17 10:37 | 39.36042 | 80.37871 | 31681 ft | 496 kts | 89° |
| 2026-04-17 10:37 | 39.35849 | 80.46853 | 31681 ft | 496 kts | 89° |
| 2026-04-17 10:38 | 39.35651 | 80.55843 | 31682 ft | 496 kts | 89° |
| 2026-04-17 10:38 | 39.35448 | 80.64803 | 31680 ft | 496 kts | 90° |
| 2026-04-17 10:39 | 39.35234 | 80.73772 | 31682 ft | 497 kts | 90° |
| 2026-04-17 10:39 | 39.35012 | 80.82766 | 31682 ft | 496 kts | 90° |
| 2026-04-17 10:40 | 39.34787 | 80.91727 | 31682 ft | 496 kts | 90° |
| 2026-04-17 10:40 | 39.34551 | 81.00761 | 31682 ft | 495 kts | 90° |
| 2026-04-17 10:41 | 39.34309 | 81.09713 | 31682 ft | 495 kts | 90° |
| 2026-04-17 10:41 | 39.34061 | 81.18631 | 31682 ft | 494 kts | 90° |
| 2026-04-17 10:42 | 39.33808 | 81.27592 | 31682 ft | 495 kts | 90° |
| 2026-04-17 10:42 | 39.33548 | 81.36526 | 31682 ft | 495 kts | 90° |
| 2026-04-17 10:43 | 39.33280 | 81.45509 | 31682 ft | 495 kts | 90° |
| 2026-04-17 10:43 | 39.33007 | 81.54442 | 31682 ft | 495 kts | 90° |
| 2026-04-17 10:44 | 39.32725 | 81.63410 | 31681 ft | 495 kts | 90° |
| 2026-04-17 10:44 | 39.32438 | 81.72339 | 31681 ft | 495 kts | 91° |
| 2026-04-17 10:45 | 39.32142 | 81.81300 | 31682 ft | 495 kts | 91° |
| 2026-04-17 10:45 | 39.31839 | 81.90272 | 31682 ft | 495 kts | 91° |
| 2026-04-17 10:46 | 39.31531 | 81.99236 | 31682 ft | 495 kts | 91° |
| 2026-04-17 10:46 | 39.31214 | 82.08197 | 31682 ft | 495 kts | 91° |
| 2026-04-17 10:47 | 39.30891 | 82.17172 | 31682 ft | 495 kts | 91° |
| 2026-04-17 10:47 | 39.30562 | 82.26119 | 31682 ft | 495 kts | 91° |
| 2026-04-17 10:48 | 39.30227 | 82.35030 | 31682 ft | 495 kts | 91° |
| 2026-04-17 10:48 | 39.29884 | 82.43977 | 31682 ft | 495 kts | 91° |
| 2026-04-17 10:49 | 39.29534 | 82.52920 | 31682 ft | 495 kts | 91° |
| 2026-04-17 10:49 | 39.29176 | 82.61901 | 31682 ft | 495 kts | 91° |
| 2026-04-17 10:50 | 39.28813 | 82.70841 | 31681 ft | 495 kts | 91° |
| 2026-04-17 10:50 | 39.28443 | 82.79756 | 31681 ft | 495 kts | 91° |
| 2026-04-17 10:51 | 39.28067 | 82.88693 | 31681 ft | 496 kts | 91° |
| 2026-04-17 10:51 | 39.27683 | 82.97662 | 31683 ft | 496 kts | 92° |
| 2026-04-17 10:52 | 39.27291 | 83.06636 | 31682 ft | 496 kts | 92° |
| 2026-04-17 10:52 | 39.26889 | 83.15642 | 31682 ft | 496 kts | 92° |
| 2026-04-17 10:53 | 39.26483 | 83.24597 | 31682 ft | 496 kts | 92° |
| 2026-04-17 10:53 | 39.26070 | 83.33580 | 31682 ft | 496 kts | 92° |
| 2026-04-17 10:54 | 39.25651 | 83.42511 | 31683 ft | 496 kts | 92° |
| 2026-04-17 10:54 | 39.25227 | 83.51444 | 31683 ft | 496 kts | 92° |
| 2026-04-17 10:55 | 39.24791 | 83.60458 | 31682 ft | 497 kts | 92° |
| 2026-04-17 10:55 | 39.24353 | 83.69376 | 31682 ft | 497 kts | 92° |
| 2026-04-17 10:56 | 39.23904 | 83.78361 | 31682 ft | 497 kts | 92° |
| 2026-04-17 10:56 | 39.23452 | 83.87283 | 31689 ft | 497 kts | 92° |
| 2026-04-17 10:57 | 39.22989 | 83.96292 | 31711 ft | 499 kts | 92° |
| 2026-04-17 10:57 | 39.22519 | 84.05296 | 31743 ft | 500 kts | 92° |
| 2026-04-17 10:58 | 39.22040 | 84.14330 | 31768 ft | 500 kts | 92° |
| 2026-04-17 10:58 | 39.21556 | 84.23319 | 31780 ft | 500 kts | 92° |
| 2026-04-17 10:59 | 39.21064 | 84.32336 | 31786 ft | 500 kts | 92° |
| 2026-04-17 10:59 | 39.20566 | 84.41337 | 31788 ft | 500 kts | 92° |
| 2026-04-17 11:00 | 39.20059 | 84.50378 | 31790 ft | 500 kts | 92° |
| 2026-04-17 11:00 | 39.19546 | 84.59403 | 31790 ft | 500 kts | 92° |
| 2026-04-17 11:01 | 39.19028 | 84.68381 | 31789 ft | 500 kts | 93° |
| 2026-04-17 11:01 | 39.18500 | 84.77409 | 31789 ft | 500 kts | 93° |
| 2026-04-17 11:02 | 39.17967 | 84.86397 | 31789 ft | 500 kts | 93° |
| 2026-04-17 11:02 | 39.17426 | 84.95431 | 31789 ft | 500 kts | 93° |
| 2026-04-17 11:03 | 39.16880 | 85.04446 | 31788 ft | 502 kts | 93° |
| 2026-04-17 11:03 | 39.16327 | 85.13493 | 31788 ft | 505 kts | 94° |
| 2026-04-17 11:04 | 39.15758 | 85.22642 | 31789 ft | 508 kts | 94° |
| 2026-04-17 11:04 | 39.15179 | 85.31766 | 31790 ft | 508 kts | 94° |
| 2026-04-17 11:05 | 39.14590 | 85.40927 | 31789 ft | 508 kts | 94° |
| 2026-04-17 11:05 | 39.13995 | 85.50092 | 31778 ft | 508 kts | 94° |
| 2026-04-17 11:06 | 39.13399 | 85.59199 | 31771 ft | 508 kts | 94° |
| 2026-04-17 11:06 | 39.12793 | 85.68349 | 31766 ft | 508 kts | 95° |
| 2026-04-17 11:07 | 39.12180 | 85.77478 | 31764 ft | 508 kts | 95° |
| 2026-04-17 11:07 | 39.11560 | 85.86601 | 31764 ft | 508 kts | 95° |
| 2026-04-17 11:08 | 39.10930 | 85.95772 | 31763 ft | 508 kts | 95° |
| 2026-04-17 11:08 | 39.10296 | 86.04898 | 31763 ft | 508 kts | 95° |
| 2026-04-17 11:09 | 39.09655 | 86.14031 | 31763 ft | 508 kts | 95° |
| 2026-04-17 11:09 | 39.09005 | 86.23160 | 31763 ft | 508 kts | 95° |
| 2026-04-17 11:10 | 39.08022 | 86.36818 | 31764 ft | 508 kts | 95° |
| 2026-04-17 11:10 | 39.07357 | 86.45918 | 31764 ft | 508 kts | 95° |
| 2026-04-17 11:11 | 39.06679 | 86.55093 | 31764 ft | 508 kts | 95° |
| 2026-04-17 11:11 | 39.06001 | 86.64185 | 31764 ft | 508 kts | 95° |
| 2026-04-17 11:12 | 39.05310 | 86.73344 | 31763 ft | 508 kts | 95° |
| 2026-04-17 11:12 | 39.04617 | 86.82425 | 31763 ft | 508 kts | 95° |
| 2026-04-17 11:13 | 39.03914 | 86.91548 | 31763 ft | 508 kts | 95° |
| 2026-04-17 11:13 | 39.03207 | 87.00638 | 31763 ft | 508 kts | 95° |
| 2026-04-17 11:14 | 39.02489 | 87.09785 | 31763 ft | 508 kts | 96° |
| 2026-04-17 11:14 | 39.01765 | 87.18904 | 31762 ft | 509 kts | 96° |
| 2026-04-17 11:15 | 39.01037 | 87.27993 | 31763 ft | 509 kts | 96° |
| 2026-04-17 11:15 | 39.00294 | 87.37178 | 31763 ft | 510 kts | 96° |
| 2026-04-17 11:16 | 38.99549 | 87.46287 | 31763 ft | 511 kts | 96° |
| 2026-04-17 11:16 | 38.98796 | 87.55424 | 31763 ft | 511 kts | 96° |
| 2026-04-17 11:17 | 38.98032 | 87.64609 | 31763 ft | 512 kts | 96° |
| 2026-04-17 11:17 | 38.97258 | 87.73783 | 31762 ft | 512 kts | 97° |
| 2026-04-17 11:18 | 38.96478 | 87.82944 | 31762 ft | 513 kts | 97° |
| 2026-04-17 11:18 | 38.95687 | 87.92137 | 31763 ft | 514 kts | 97° |
| 2026-04-17 11:19 | 38.94885 | 88.01379 | 31762 ft | 514 kts | 97° |
| 2026-04-17 11:19 | 38.94082 | 88.10577 | 31763 ft | 515 kts | 97° |
| 2026-04-17 11:20 | 38.93273 | 88.19743 | 31763 ft | 515 kts | 97° |
| 2026-04-17 11:20 | 38.92452 | 88.28971 | 31763 ft | 516 kts | 97° |
| 2026-04-17 11:21 | 38.91620 | 88.38242 | 31764 ft | 516 kts | 97° |
| 2026-04-17 11:21 | 38.90788 | 88.47428 | 31764 ft | 517 kts | 97° |
| 2026-04-17 11:22 | 38.89942 | 88.56679 | 31764 ft | 517 kts | 97° |
| 2026-04-17 11:22 | 38.89085 | 88.65967 | 31762 ft | 518 kts | 98° |
| 2026-04-17 11:23 | 38.88221 | 88.75251 | 31763 ft | 519 kts | 98° |
| 2026-04-17 11:23 | 38.87358 | 88.84467 | 31762 ft | 519 kts | 98° |
| 2026-04-17 11:24 | 38.86845 | 88.89897 | 31763 ft | 519 kts | 98° |